Latest Weather Observations for Jabiru

IDD60801

Issued at 10:51 pm CST Wednesday 20 February 2019 (issued every 10 minutes, with the page automatically refreshed every 10 minutes)

About weather observations | Map of weather stations | Latest weather observations for NT | Other Formats
Station Details ID: 014198 Name: JABIRU AIRPORT Lat: -12.66 Lon: 132.89 Height: 26.5 m
Data from the previous 72 hours. | See also: Recent months at Jabiru
Date/Time
CST
Temp
°C
App
Temp
°C
Dew
Point
°C
Rel
Hum
%
Delta-T
°C
Wind Press
QNH
hPa
Press
MSL
hPa
Rain since
9am
mm
Dir  Spd
km/h
Gust
km/h
Spd
kts
Gust
kts
20/10:30pm 28.8 35.4 26.4 87 1.7 N 4 6 2 3 1011.2 1011.0 0.0
20/10:00pm 28.9 34.9 26.3 86 1.9 N 7 11 4 6 1010.8 1010.6 0.0
20/09:30pm 29.2 34.7 26.2 84 2.1 NNW 9 13 5 7 1010.6 1010.4 0.0
20/09:00pm 29.7 35.2 26.1 81 2.6 NNW 9 13 5 7 1010.4 1010.2 0.0
20/08:30pm 30.1 35.2 26.1 79 2.9 NNW 11 17 6 9 1010.4 1010.2 0.0
20/08:00pm 31.1 36.1 25.4 71 4.0 NNW 9 9 5 5 1009.9 1009.7 0.0
20/07:30pm 31.4 36.7 25.3 70 4.3 NNW 7 9 4 5 1009.6 1009.4 0.0
20/07:00pm 32.3 37.4 24.9 65 5.2 NW 7 9 4 5 1009.3 1009.1 0.0
20/06:30pm 33.6 38.2 24.2 58 6.6 WNW 7 11 4 6 1009.2 1009.0 0.0
20/06:00pm 34.2 38.3 23.9 55 7.2 W 9 13 5 7 1008.8 1008.6 0.0
20/05:30pm 34.6 37.6 23.3 52 7.9 W 13 19 7 10 1008.6 1008.4 0.0
20/05:00pm 34.4 36.3 21.4 46 8.8 W 13 20 7 11 1008.5 1008.3 0.0
20/04:30pm 34.6 37.4 23.0 51 8.0 W 13 17 7 9 1008.4 1008.2 0.0
20/04:00pm 34.4 37.8 23.4 52 7.7 SW 11 17 6 9 1008.8 1008.6 0.0
20/03:30pm 34.1 38.1 24.4 57 6.8 WSW 11 17 6 9 1009.1 1008.9 0.0
20/03:00pm 34.1 37.9 24.7 58 6.6 W 13 22 7 12 1009.5 1009.3 0.0
20/02:30pm 33.7 37.3 24.3 58 6.6 SW 13 24 7 13 1010.1 1009.9 0.0
20/02:00pm 32.6 35.1 23.8 59 6.1 WSW 17 24 9 13 1010.6 1010.4 0.0
20/01:30pm 32.6 35.8 24.4 62 5.8 WSW 15 26 8 14 1011.2 1011.0 0.0
20/01:00pm 31.8 34.5 24.1 63 5.4 SW 17 24 9 13 1011.7 1011.5 0.0
20/12:30pm 31.7 35.3 24.3 65 5.2 WSW 13 22 7 12 1012.0 1011.8 0.0
20/12:00pm 30.4 33.1 24.1 69 4.4 W 17 22 9 12 1012.3 1012.1 0.0
20/11:30am 30.1 33.1 24.0 70 4.2 WNW 15 22 8 12 1012.2 1012.0 0.0
20/11:00am 29.1 32.2 23.5 72 3.9 NW 13 15 7 8 1012.6 1012.4 0.0
20/10:30am 29.3 32.8 22.8 68 4.4 WSW 9 15 5 8 1012.9 1012.7 0.0
20/10:00am 28.4 32.3 22.9 72 3.8 SW 7 11 4 6 1012.9 1012.7 0.0
20/09:30am 27.7 31.4 23.3 77 3.0 SW 9 13 5 7 1012.8 1012.6 0.0
20/09:00am 27.4 30.8 23.4 79 2.7 SW 11 17 6 9 1012.7 1012.5 24.4
20/08:30am 26.8 30.5 23.3 81 2.4 WSW 9 13 5 7 1012.2 1012.0 24.4
20/08:00am 25.6 30.0 23.5 88 1.4 SSW 6 7 3 4 1012.2 1012.0 24.4
20/07:30am 25.3 30.7 23.9 92 1.0 ESE 2 7 1 4 1011.9 1011.7 24.4
20/07:00am 24.6 30.1 23.4 93 0.8 CALM 0 0 0 0 1011.7 1011.5 24.4
20/06:40am 24.3 28.4 23.3 94 0.7 S 7 11 4 6 1011.7 1011.5 24.4
20/06:30am 24.3 28.0 23.3 94 0.7 S 9 13 5 7 1011.5 1011.3 24.4
20/06:00am 24.3 28.2 23.6 96 0.5 S 9 15 5 8 1011.4 1011.2 24.4
20/05:54am 24.3 28.2 23.6 96 0.5 SW 9 15 5 8 1011.2 1011.0 24.4
20/05:33am 24.3 27.1 23.6 96 0.5 W 15 22 8 12 1010.9 1010.7 24.4
20/05:30am 24.4 26.8 23.7 96 0.5 W 17 22 9 12 1010.8 1010.6 24.4
20/05:00am 24.2 27.3 23.5 96 0.5 SW 13 20 7 11 1011.6 1011.4 24.4
20/04:59am 24.1 27.1 23.4 96 0.5 SW 13 20 7 11 1011.5 1011.3 24.4
20/04:30am 23.9 26.4 23.2 96 0.5 WSW 15 20 8 11 1011.9 1011.7 24.4
20/04:00am 23.6 27.1 22.9 96 0.5 SW 9 11 5 6 1012.8 1012.6 24.4
20/03:30am 23.5 26.6 22.8 96 0.5 WNW 11 15 6 8 1012.6 1012.4 24.0
20/03:00am 23.3 27.0 22.5 95 0.5 NNW 7 9 4 5 1012.8 1012.6 23.8
20/02:30am 23.3 27.0 22.5 95 0.5 ENE 7 11 4 6 1012.6 1012.4 23.0
20/02:00am 23.5 26.4 22.5 94 0.7 ESE 11 15 6 8 1012.9 1012.7 21.8
20/01:30am 23.4 26.0 22.7 96 0.5 WSW 13 17 7 9 1013.4 1013.2 21.2
20/01:02am 22.6 23.6 21.8 95 0.5 S 19 37 10 20 1014.9 1014.7 15.8
20/01:00am 22.7 24.1 21.9 95 0.5 S 17 26 9 14 1015.1 1014.9 14.4
20/12:36am 22.3 23.6 20.9 92 0.9 ENE 15 20 8 11 1015.6 1015.4 14.0
20/12:30am 22.4 23.7 20.9 91 1.0 ENE 15 22 8 12 1015.8 1015.6 14.0
20/12:14am 23.0 22.4 20.5 86 1.6 ENE 24 33 13 18 1015.5 1015.3 11.8
20/12:00am 25.0 27.7 23.4 91 1.1 SE 15 26 8 14 1015.3 1015.1 8.6
 
Date/Time
CST
Temp
°C
App
Temp
°C
Dew
Point
°C
Rel
Hum
%
Delta-T
°C
Wind Press
QNH
hPa
Press
MSL
hPa
Rain since
9am
mm
Dir  Spd
km/h
Gust
km/h
Spd
kts
Gust
kts
19/11:56pm 24.8 26.8 22.3 86 1.7 SW 15 22 8 12 1015.0 1014.8 8.6
19/11:30pm 24.9 26.1 22.2 85 1.8 W 19 33 10 18 1013.2 1013.0 2.8
19/11:00pm 27.5 29.1 22.9 76 3.1 SW 19 32 10 17 1013.1 1012.9 0.0
19/10:30pm 29.4 34.8 26.0 82 2.4 NW 9 11 5 6 1013.1 1012.9 0.0
19/10:00pm 29.5 35.2 25.9 81 2.6 NW 7 11 4 6 1012.9 1012.7 0.0
19/09:30pm 28.8 32.9 24.6 78 2.9 NNE 11 17 6 9 1011.2 1011.0 0.0
19/09:00pm 30.0 33.9 24.9 74 3.6 N 13 19 7 10 1011.5 1011.3 0.0
19/08:30pm 30.3 34.5 24.7 72 3.9 N 11 17 6 9 1011.2 1011.0 0.0
19/08:00pm 30.6 35.0 25.0 72 3.9 N 11 17 6 9 1010.9 1010.7 0.0
19/07:30pm 31.2 35.4 25.3 71 4.2 NNW 13 19 7 10 1010.1 1009.9 0.0
19/07:00pm 31.7 35.4 25.8 71 4.2 NNW 17 24 9 13 1009.3 1009.1 0.0
19/06:30pm 32.8 37.1 26.1 68 4.8 NNW 15 20 8 11 1008.7 1008.5 0.0
19/06:00pm 33.5 37.0 24.9 60 6.1 NW 15 22 8 12 1008.7 1008.5 0.0
19/05:30pm 34.5 37.4 23.8 53 7.5 WNW 15 20 8 11 1008.3 1008.0 0.0
19/05:00pm 34.7 37.0 23.4 52 7.9 W 17 24 9 13 1008.3 1008.0 0.0
19/04:30pm 35.0 37.8 23.7 52 7.9 W 15 20 8 11 1008.5 1008.3 0.0
19/04:00pm 34.3 36.9 23.3 52 7.6 WNW 15 20 8 11 1008.9 1008.7 0.0
19/03:30pm 34.6 37.2 23.3 52 7.9 W 15 20 8 11 1009.1 1008.9 0.0
19/03:00pm 33.6 36.7 23.6 56 7.0 W 13 22 7 12 1009.3 1009.1 0.0
19/02:30pm 33.9 36.9 23.3 54 7.4 WSW 13 20 7 11 1009.6 1009.4 0.0
19/02:00pm 33.9 37.0 23.6 55 7.2 W 13 19 7 10 1010.1 1009.9 0.0
19/01:30pm 33.4 36.3 23.1 54 7.1 W 13 19 7 10 1010.4 1010.2 0.0
19/01:00pm 33.3 37.2 24.2 59 6.4 WNW 11 19 6 10 1010.9 1010.7 0.0
19/12:30pm 33.1 36.5 24.0 59 6.4 W 13 22 7 12 1011.3 1011.1 0.0
19/12:00pm 32.0 35.8 24.1 63 5.5 WNW 11 17 6 9 1011.6 1011.4 0.0
19/11:30am 31.5 34.3 23.6 63 5.5 W 15 20 8 11 1012.0 1011.8 0.0
19/11:00am 31.5 34.7 24.4 66 5.0 W 15 20 8 11 1012.3 1012.1 0.0
19/10:30am 30.6 34.0 24.7 71 4.1 WNW 15 20 8 11 1012.6 1012.4 0.0
19/10:00am 29.5 33.9 25.0 77 3.2 WSW 11 17 6 9 1012.7 1012.5 0.0
19/09:30am 29.2 33.8 25.4 80 2.7 W 11 17 6 9 1012.5 1012.3 0.0
19/09:00am 28.5 33.6 24.9 81 2.5 WSW 7 13 4 7 1012.3 1012.1 33.8
19/08:30am 27.2 32.3 24.7 86 1.7 SSW 6 9 3 5 1012.1 1011.9 33.8
19/08:00am 25.8 31.3 24.0 90 1.2 WNW 2 6 1 3 1011.7 1011.5 33.8
19/07:30am 25.1 29.9 24.2 95 0.6 NW 6 7 3 4 1011.3 1011.1 33.8
19/07:00am 24.6 29.9 23.7 95 0.6 NW 2 7 1 4 1011.0 1010.8 33.8
19/06:30am 24.7 29.3 23.8 95 0.6 NW 6 7 3 4 1010.9 1010.7 33.8
19/06:00am 24.8 29.5 23.9 95 0.6 NW 6 6 3 3 1010.6 1010.4 33.8
19/05:30am 24.8 30.5 23.8 94 0.7 CALM 0 0 0 0 1010.6 1010.4 33.8
19/05:00am 24.6 29.5 23.7 95 0.6 SW 4 6 2 3 1010.5 1010.3 33.8
19/04:30am 24.8 28.9 23.9 95 0.6 SW 9 13 5 7 1010.5 1010.3 33.8
19/04:00am 24.9 29.5 24.2 96 0.5 SW 7 9 4 5 1010.3 1010.1 33.8
19/03:30am 24.7 29.1 23.8 95 0.6 SSW 7 13 4 7 1010.4 1010.2 33.8
19/03:00am 24.7 30.4 23.7 94 0.7 CALM 0 0 0 0 1010.6 1010.4 33.6
19/02:30am 24.6 29.8 23.6 94 0.7 S 2 6 1 3 1010.8 1010.6 33.6
19/02:00am 24.6 29.5 23.6 94 0.7 WSW 4 7 2 4 1011.4 1011.2 33.4
19/01:30am 24.6 29.7 23.4 93 0.8 SW 2 6 1 3 1012.0 1011.8 32.8
19/01:00am 24.7 30.3 23.5 93 0.8 CALM 0 0 0 0 1012.2 1012.0 32.2
19/12:30am 24.7 30.3 23.5 93 0.8 CALM 0 0 0 0 1012.5 1012.3 31.8
19/12:00am 24.7 28.1 23.3 92 1.0 SW 11 17 6 9 1013.1 1012.9 31.2
 
Date/Time
CST
Temp
°C
App
Temp
°C
Dew
Point
°C
Rel
Hum
%
Delta-T
°C
Wind Press
QNH
hPa
Press
MSL
hPa
Rain since
9am
mm
Dir  Spd
km/h
Gust
km/h
Spd
kts
Gust
kts
18/11:30pm 25.3 29.7 23.4 89 1.3 SW 6 9 3 5 1012.7 1012.5 30.8
18/11:00pm 25.6 30.2 24.2 92 1.0 SW 7 13 4 7 1012.7 1012.5 30.8
18/10:30pm 25.1 29.1 23.7 92 1.0 SW 9 13 5 7 1012.7 1012.5 30.8
18/10:00pm 24.9 29.0 23.0 89 1.3 NW 6 11 3 6 1011.4 1011.2 30.8
18/09:37pm 24.7 27.4 22.8 89 1.3 N 13 19 7 10 1011.6 1011.4 30.8
18/09:36pm 24.8 27.2 23.0 90 1.2 N 15 24 8 13 1011.6 1011.4 30.8
18/09:30pm 24.5 26.5 22.9 91 1.1 N 17 28 9 15 1011.7 1011.5 30.8
18/09:07pm 24.4 24.7 23.0 92 0.9 NNE 26 35 14 19 1011.3 1011.1 17.8
18/09:00pm 24.8 25.0 22.7 88 1.4 NE 26 37 14 20 1011.7 1011.5 8.4
18/08:58pm 25.3 25.9 22.8 86 1.7 NE 24 37 13 20 1011.5 1011.3 5.6
18/08:30pm 28.2 30.7 23.1 74 3.5 E 15 32 8 17 1010.5 1010.3 0.0
18/08:00pm 29.2 33.4 24.1 74 3.5 NNE 9 13 5 7 1009.7 1009.5 0.0
18/07:30pm 29.9 33.2 23.8 70 4.2 NNW 13 19 7 10 1009.0 1008.8 0.0
18/07:00pm 30.4 32.5 23.1 65 5.0 NNW 17 22 9 12 1008.8 1008.6 0.0
18/06:30pm 31.3 35.0 23.9 64 5.2 NNW 11 17 6 9 1007.9 1007.7 0.0
18/06:00pm 32.3 34.4 24.1 62 5.7 NNW 20 30 11 16 1007.7 1007.5 0.0
18/05:30pm 35.3 38.1 23.0 49 8.5 W 13 19 7 10 1007.6 1007.4 0.0
18/05:00pm 35.1 37.6 21.7 45 9.1 NW 11 17 6 9 1007.4 1007.2 0.0
18/04:30pm 35.5 37.6 21.7 44 9.4 W 13 19 7 10 1007.3 1007.1 0.0
18/04:00pm 34.8 38.3 22.2 48 8.6 W 7 15 4 8 1007.7 1007.5 0.0
18/03:30pm 35.0 38.0 22.0 46 8.9 W 9 15 5 8 1008.1 1007.8 0.0
18/03:00pm 34.8 37.0 21.1 44 9.3 WSW 11 17 6 9 1008.4 1008.2 0.0
18/02:30pm 34.4 36.6 21.8 48 8.6 WSW 13 20 7 11 1008.8 1008.6 0.0
18/02:00pm 33.7 35.5 21.2 48 8.4 WNW 13 19 7 10 1009.2 1009.0 0.0
18/01:30pm 33.4 35.1 20.9 48 8.4 NW 13 17 7 9 1009.7 1009.5 0.0
18/01:00pm 33.4 36.5 22.2 52 7.7 WNW 9 19 5 10 1010.2 1010.0 0.0
18/12:30pm 32.8 36.1 22.6 55 7.0 WSW 9 15 5 8 1010.6 1010.4 0.0
18/12:00pm 32.4 35.5 22.8 57 6.6 WNW 11 17 6 9 1010.9 1010.7 0.0
18/11:30am 32.0 35.4 22.7 58 6.4 WSW 9 15 5 8 1011.1 1010.9 0.0
18/11:00am 31.3 35.1 23.4 63 5.5 SW 9 13 5 7 1011.3 1011.1 0.0
18/10:30am 30.6 34.4 24.0 68 4.6 SW 11 17 6 9 1011.7 1011.5 0.0
18/10:00am 29.8 33.9 24.0 71 4.0 WSW 9 13 5 7 1011.8 1011.6 0.0
18/09:30am 28.9 33.4 23.6 73 3.7 WNW 6 9 3 5 1011.9 1011.7 0.0
18/09:00am 27.9 33.4 24.1 80 2.6 NW 2 7 1 4 1011.6 1011.4 35.2
18/08:30am 26.9 32.7 24.0 84 2.0 CALM 0 0 0 0 1011.4 1011.2 35.2
18/08:00am 26.0 31.6 23.5 86 1.7 CALM 0 0 0 0 1011.1 1010.9 35.2
18/07:30am 25.5 31.0 24.1 92 1.0 NNE 2 7 1 4 1010.7 1010.5 35.2
18/07:00am 24.8 30.6 23.9 95 0.6 CALM 0 0 0 0 1010.3 1010.1 35.2
18/06:30am 24.7 30.4 23.8 95 0.6 CALM 0 0 0 0 1009.9 1009.7 35.2
18/06:00am 24.8 30.6 23.9 95 0.6 CALM 0 0 0 0 1009.8 1009.6 35.2
18/05:30am 24.8 29.5 23.9 95 0.6 W 6 9 3 5 1009.7 1009.5 35.2
18/05:00am 24.9 29.6 23.9 94 0.7 WSW 6 7 3 4 1009.3 1009.1 35.2
18/04:30am 25.0 30.4 23.8 93 0.8 WSW 2 9 1 5 1009.1 1008.9 35.2
18/04:00am 24.9 30.6 23.7 93 0.8 CALM 0 0 0 0 1008.8 1008.6 35.2
18/03:30am 24.9 30.5 23.5 92 1.0 CALM 0 0 0 0 1009.0 1008.8 35.2
18/03:00am 24.8 30.5 23.8 94 0.7 CALM 0 0 0 0 1009.2 1009.0 35.2
18/02:30am 24.6 29.1 23.6 94 0.7 ESE 6 9 3 5 1009.4 1009.2 35.2
18/02:00am 24.7 29.0 23.7 94 0.7 ENE 7 9 4 5 1009.8 1009.6 35.2
18/01:30am 24.8 30.2 23.8 94 0.7 SE 2 6 1 3 1010.5 1010.3 35.2
18/01:00am 24.7 30.3 23.5 93 0.8 CALM 0 0 0 0 1010.7 1010.5 35.2
18/12:30am 24.7 29.6 23.7 94 0.7 SE 4 7 2 4 1011.0 1010.8 35.2
18/12:00am 24.4 29.2 23.5 95 0.6 SSW 4 7 2 4 1011.3 1011.1 35.2
 
Date/Time
CST
Temp
°C
App
Temp
°C
Dew
Point
°C
Rel
Hum
%
Delta-T
°C
Wind Press
QNH
hPa
Press
MSL
hPa
Rain since
9am
mm
Dir  Spd
km/h
Gust
km/h
Spd
kts
Gust
kts
17/11:30pm 24.3 28.4 23.3 94 0.7 ESE 7 11 4 6 1011.4 1011.2 35.0
17/11:00pm 24.0 27.3 22.6 92 0.9 E 9 15 5 8 1011.5 1011.3 34.8

Other formats

Comma delimited format used in spreadsheet applications
http://www.bom.gov.au/fwo/IDD60801/IDD60801.94137.axf

JavaScript Object Notation format (JSON) in row-major order
http://www.bom.gov.au/fwo/IDD60801/IDD60801.94137.json

Data quality

Most of these data are generated automatically and are frequently updated. Quality checks on data are not normally performed. It is possible for incorrect values to appear. Refer to information at About Latest Weather Observations and please check the disclaimer before using these data.